Time;durP1;ratioP1;P1;durP2;ratioP2;P2;SDS_P1;SDS_P2;PMS_P1;PMS_P2;Temp;Humidity;BMP_temperature;BMP_pressure;BME280_temperature;BME280_humidity;BME280_pressure;Samples;Min_cycle;Max_cycle;Signal;HPM_P1;HPM_P2
2022/05/27 00:00:00;;;;;;;;;;;;;;;18.83;63.35;101684.63;1048883;28;622;-63
2022/05/27 00:00:51;;;;;;;;;;;;;;;18.82;63.37;101674.81;1048903;28;665;-65
2022/05/27 00:01:41;;;;;;;;;;;;;;;18.83;63.40;101688.19;1048806;28;747;-66
2022/05/27 00:02:32;;;;;;;;;;;;;;;18.83;62.77;101684.63;1048739;28;704;-66
2022/05/27 00:03:22;;;;;;;;;;;;;;;18.82;63.73;101689.19;1048768;28;638;-65
2022/05/27 00:04:13;;;;;;;;;;;;;;;18.81;63.77;101681.25;1048713;28;637;-66
2022/05/27 00:05:03;;;;;;;;;;;;;;;18.79;63.21;101689.47;1048750;28;646;-65
2022/05/27 00:05:54;;;;;;;;;;;;;;;18.79;63.21;101688.63;1052705;28;728;-66
2022/05/27 00:06:44;;;;;;;;;;;;;;;18.79;63.14;101692.19;1053801;28;672;-66
2022/05/27 00:07:34;;;;;;;;;;;;;;;18.80;63.63;101680.38;1049668;28;621;-66
2022/05/27 00:08:25;;;;;;;;;;;;;;;18.80;63.77;101684.94;1048885;28;704;-66
2022/05/27 00:09:16;;;;;;;;;;;;;;;18.79;63.97;101683.22;1049788;28;1889;-66
2022/05/27 00:10:06;;;;;;;;;;;;;;;18.80;63.51;101684.94;1048767;28;650;-66
2022/05/27 00:10:57;;;;;;;;;;;;;;;18.80;63.24;101691.19;1049757;28;739;-65
2022/05/27 00:11:47;;;;;;;;;;;;;;;18.79;64.05;101684.06;1048745;28;669;-66
2022/05/27 00:12:38;;;;;;;;;;;;;;;18.78;63.15;101684.19;1048516;28;650;-65
2022/05/27 00:13:28;;;;;;;;;;;;;;;18.76;63.54;101684.34;1048721;28;686;-65
2022/05/27 00:14:19;;;;;;;;;;;;;;;18.76;63.15;101683.47;1048818;28;630;-65
2022/05/27 00:15:09;;;;;;;;;;;;;;;18.76;63.31;101683.47;1048715;28;623;-65
2022/05/27 00:16:00;;;;;;;;;;;;;;;18.76;63.56;101681.63;1048746;28;630;-64
2022/05/27 00:16:50;;;;;;;;;;;;;;;18.78;62.92;101686.91;1048660;28;630;-64
2022/05/27 00:17:40;;;;;;;;;;;;;;;18.76;63.75;101688.88;1048636;28;1156;-64
2022/05/27 00:18:31;;;;;;;;;;;;;;;18.76;63.37;101689.72;1048883;28;657;-64
2022/05/27 00:19:21;;;;;;;;;;;;;;;18.73;63.66;101679.19;1050764;28;1460;-64
2022/05/27 00:20:12;;;;;;;;;;;;;;;18.74;63.88;101683.59;1052493;28;657;-64
2022/05/27 00:21:02;;;;;;;;;;;;;;;18.73;63.71;101679.19;1052334;28;666;-64
2022/05/27 00:21:52;;;;;;;;;;;;;;;18.73;63.29;101681.88;1052863;28;708;-64
2022/05/27 00:22:43;;;;;;;;;;;;;;;18.73;64.08;101684.59;1052774;28;709;-65
2022/05/27 00:23:33;;;;;;;;;;;;;;;18.73;63.67;101684.59;1052075;28;1572;-65
2022/05/27 00:24:24;;;;;;;;;;;;;;;18.73;63.20;101681.88;1048140;28;626;-65
2022/05/27 00:25:14;;;;;;;;;;;;;;;18.69;64.14;101686.69;1048584;28;717;-64
2022/05/27 00:26:04;;;;;;;;;;;;;;;18.70;63.68;101690.25;1048635;28;765;-65
2022/05/27 00:26:55;;;;;;;;;;;;;;;18.71;63.58;101691.97;1048386;28;1827;-65
2022/05/27 00:27:46;;;;;;;;;;;;;;;18.70;63.33;101687.53;1049049;28;681;-65
2022/05/27 00:28:36;;;;;;;;;;;;;;;18.70;63.19;101690.25;1054705;28;1740;-65
2022/05/27 00:29:26;;;;;;;;;;;;;;;18.70;63.09;101679.44;1057130;28;1523;-65
2022/05/27 00:30:17;;;;;;;;;;;;;;;18.71;64.03;101687.41;1053621;28;678;-65
2022/05/27 00:31:07;;;;;;;;;;;;;;;18.69;63.18;101685.84;1052733;28;641;-65
2022/05/27 00:31:58;;;;;;;;;;;;;;;18.68;63.64;101681.41;1052832;28;657;-65
2022/05/27 00:32:48;;;;;;;;;;;;;;;18.68;63.88;101684.13;1052661;28;569;-65
2022/05/27 00:33:39;;;;;;;;;;;;;;;18.67;63.79;101688.66;1052619;28;765;-64
2022/05/27 00:34:29;;;;;;;;;;;;;;;18.68;63.16;101686.81;1052247;28;720;-64
2022/05/27 00:35:20;;;;;;;;;;;;;;;18.67;63.74;101690.50;1054054;28;646;-64
2022/05/27 00:36:10;;;;;;;;;;;;;;;18.68;63.40;101689.53;1053974;28;649;-64
2022/05/27 00:37:01;;;;;;;;;;;;;;;18.67;63.58;101682.41;1050561;28;1725;-64
2022/05/27 00:37:51;;;;;;;;;;;;;;;18.66;63.75;101686.09;1049702;28;672;-64
2022/05/27 00:38:41;;;;;;;;;;;;;;;18.66;64.18;101688.78;1049166;28;653;-64
2022/05/27 00:39:32;;;;;;;;;;;;;;;18.65;63.20;101679.84;1053783;28;663;-64
2022/05/27 00:40:22;;;;;;;;;;;;;;;18.64;63.74;101679.97;1053809;28;700;-64
2022/05/27 00:41:13;;;;;;;;;;;;;;;18.65;63.21;101684.38;1049283;28;680;-64
2022/05/27 00:42:03;;;;;;;;;;;;;;;18.64;63.13;101678.13;1049641;28;668;-64
2022/05/27 00:42:54;;;;;;;;;;;;;;;18.64;63.81;101688.06;1049583;28;685;-64
2022/05/27 00:43:44;;;;;;;;;;;;;;;18.64;63.15;101686.22;1049670;28;633;-64
2022/05/27 00:44:35;;;;;;;;;;;;;;;18.64;63.84;101682.66;1049758;28;728;-64
2022/05/27 00:45:25;;;;;;;;;;;;;;;18.62;63.10;101682.81;1049606;28;1238;-65
2022/05/27 00:46:16;;;;;;;;;;;;;;;18.63;64.16;101683.69;1049685;28;642;-65
2022/05/27 00:47:06;;;;;;;;;;;;;;;18.61;63.93;101691.06;1048406;28;698;-64
2022/05/27 00:47:57;;;;;;;;;;;;;;;18.61;63.46;101680.25;1048323;28;638;-64
2022/05/27 00:48:48;;;;;;;;;;;;;;;18.61;63.56;101681.09;1052682;28;1255;-65
2022/05/27 00:49:38;;;;;;;;;;;;;;;18.61;63.89;101675.72;1053253;28;681;-65
2022/05/27 00:50:28;;;;;;;;;;;;;;;18.61;63.30;101670.31;1053386;28;659;-65
2022/05/27 00:51:19;;;;;;;;;;;;;;;18.59;63.42;101677.69;1053265;28;677;-64
2022/05/27 00:52:09;;;;;;;;;;;;;;;18.60;63.01;101673.13;1053251;28;701;-65
2022/05/27 00:53:00;;;;;;;;;;;;;;;18.59;63.72;101672.28;1053297;28;693;-64
2022/05/27 00:53:50;;;;;;;;;;;;;;;18.62;63.68;101676.56;1053182;28;634;-65
2022/05/27 00:54:40;;;;;;;;;;;;;;;18.61;64.06;101669.44;1053317;28;689;-65
2022/05/27 00:55:31;;;;;;;;;;;;;;;18.58;63.20;101665.13;1053183;28;621;-65
2022/05/27 00:56:22;;;;;;;;;;;;;;;18.58;63.51;101664.28;1053919;28;716;-65
2022/05/27 00:57:12;;;;;;;;;;;;;;;18.57;63.76;101658.03;1049674;28;634;-65
2022/05/27 00:58:03;;;;;;;;;;;;;;;18.59;63.25;101656.09;1048585;28;1489;-65
2022/05/27 00:58:53;;;;;;;;;;;;;;;18.57;63.28;101655.31;1052580;28;649;-65
2022/05/27 00:59:43;;;;;;;;;;;;;;;18.57;63.25;101654.47;1051777;28;1587;-65
2022/05/27 01:00:34;;;;;;;;;;;;;;;18.58;63.89;101661.56;1056518;28;692;-65
2022/05/27 01:01:24;;;;;;;;;;;;;;;18.58;64.30;101653.47;1057874;28;625;-65
2022/05/27 01:02:15;;;;;;;;;;;;;;;18.57;63.68;101647.22;1053172;28;1485;-65
2022/05/27 01:03:05;;;;;;;;;;;;;;;18.58;64.06;101648.06;1052543;28;688;-65
2022/05/27 01:03:55;;;;;;;;;;;;;;;18.57;63.79;101649.91;1051918;28;1335;-65
2022/05/27 01:04:46;;;;;;;;;;;;;;;18.57;63.13;101646.38;1053572;28;717;-65
2022/05/27 01:05:37;;;;;;;;;;;;;;;18.57;63.01;101647.22;1054428;28;699;-65
2022/05/27 01:06:27;;;;;;;;;;;;;;;18.57;63.37;101652.63;1050333;28;700;-65
2022/05/27 01:07:17;;;;;;;;;;;;;;;18.57;63.97;101651.75;1048508;28;692;-65
2022/05/27 01:08:08;;;;;;;;;;;;;;;18.58;63.58;101653.47;1048374;28;684;-65
2022/05/27 01:08:58;;;;;;;;;;;;;;;18.58;63.50;101656.19;1048237;28;1890;-65
2022/05/27 01:09:49;;;;;;;;;;;;;;;18.56;63.22;101653.59;1048468;28;658;-66
2022/05/27 01:10:39;;;;;;;;;;;;;;;18.57;63.80;101657.16;1048401;28;638;-65
2022/05/27 01:11:29;;;;;;;;;;;;;;;18.55;63.81;101660.00;1047852;28;861;-65
2022/05/27 01:12:20;;;;;;;;;;;;;;;18.55;63.30;101657.28;1048537;28;701;-65
2022/05/27 01:13:12;;;;;;;;;;;;;;;18.55;63.71;101656.44;1048399;28;685;-65
2022/05/27 01:14:02;;;;;;;;;;;;;;;18.53;63.33;101656.56;1048457;28;637;-65
2022/05/27 01:14:53;;;;;;;;;;;;;;;18.55;63.70;101659.13;1048457;28;693;-65
2022/05/27 01:15:43;;;;;;;;;;;;;;;18.55;63.20;101657.28;1048368;28;694;-65
2022/05/27 01:16:33;;;;;;;;;;;;;;;18.55;64.04;101657.28;1052349;28;697;-65
2022/05/27 01:17:24;;;;;;;;;;;;;;;18.55;63.71;101653.72;1053614;28;632;-65
2022/05/27 01:18:14;;;;;;;;;;;;;;;18.55;63.35;101661.84;1049198;28;700;-65
2022/05/27 01:20:21;;;;;;;;;;;;;;;18.54;63.50;101668.22;1049537;28;677;-65
2022/05/27 01:21:11;;;;;;;;;;;;;;;18.54;63.23;101665.53;1048235;28;645;-65
2022/05/27 01:22:01;;;;;;;;;;;;;;;18.56;63.70;101666.25;1048430;28;626;-65
2022/05/27 01:22:52;;;;;;;;;;;;;;;18.55;63.26;101665.38;1048453;28;724;-65
2022/05/27 01:23:42;;;;;;;;;;;;;;;18.54;63.15;101662.81;1048368;28;637;-65
2022/05/27 01:24:33;;;;;;;;;;;;;;;18.55;63.77;101661.84;1048420;28;763;-65
2022/05/27 01:25:24;;;;;;;;;;;;;;;18.53;63.86;101656.56;1048460;28;653;-65
2022/05/27 01:26:14;;;;;;;;;;;;;;;18.54;63.05;101665.53;1048256;28;1691;-65
2022/05/27 01:27:04;;;;;;;;;;;;;;;18.52;63.03;101664.78;1049445;28;616;-65
2022/05/27 01:27:55;;;;;;;;;;;;;;;18.51;63.21;101661.22;1048506;28;708;-65
2022/05/27 01:28:45;;;;;;;;;;;;;;;18.51;64.06;101668.47;1048279;28;653;-65
2022/05/27 01:29:36;;;;;;;;;;;;;;;18.49;63.88;101660.50;1048575;28;665;-65
2022/05/27 01:30:26;;;;;;;;;;;;;;;18.51;63.98;101666.63;1048286;28;642;-64
2022/05/27 01:31:16;;;;;;;;;;;;;;;18.49;63.62;101665.91;1048308;28;661;-65
2022/05/27 01:32:07;;;;;;;;;;;;;;;18.48;63.11;101661.50;1052177;28;724;-65
2022/05/27 01:32:57;;;;;;;;;;;;;;;18.50;63.55;101662.22;1053380;28;633;-64
2022/05/27 01:33:48;;;;;;;;;;;;;;;18.49;63.93;101660.50;1050356;27;660;-64
2022/05/27 01:34:38;;;;;;;;;;;;;;;18.48;63.44;101658.78;1048358;28;669;-65
2022/05/27 01:35:28;;;;;;;;;;;;;;;18.48;63.42;101652.53;1048321;28;630;-65
2022/05/27 01:36:19;;;;;;;;;;;;;;;18.49;63.53;101663.22;1048459;28;666;-64
2022/05/27 01:37:09;;;;;;;;;;;;;;;18.48;63.22;101663.34;1048278;28;689;-65
2022/05/27 01:38:00;;;;;;;;;;;;;;;18.49;63.27;101656.94;1048414;28;650;-64
2022/05/27 01:38:50;;;;;;;;;;;;;;;18.49;63.52;101659.66;1048256;28;640;-64
2022/05/27 01:39:41;;;;;;;;;;;;;;;18.47;64.13;101662.47;1048475;28;783;-64
2022/05/27 01:40:31;;;;;;;;;;;;;;;18.47;64.09;101664.31;1048807;28;677;-64
2022/05/27 01:41:21;;;;;;;;;;;;;;;18.47;63.92;101661.63;1048308;28;762;-64
2022/05/27 01:42:12;;;;;;;;;;;;;;;18.46;63.20;101660.75;1048387;28;650;-64
2022/05/27 01:43:02;;;;;;;;;;;;;;;18.46;63.22;101659.91;1048264;28;642;-64
2022/05/27 01:43:53;;;;;;;;;;;;;;;18.44;63.64;101657.38;1048375;28;753;-64
2022/05/27 01:44:43;;;;;;;;;;;;;;;18.45;63.45;101666.31;1048169;28;902;-64
2022/05/27 01:45:33;;;;;;;;;;;;;;;18.44;63.65;101661.91;1048919;28;634;-64
2022/05/27 01:46:24;;;;;;;;;;;;;;;18.44;63.49;101667.31;1048454;28;689;-64
2022/05/27 01:47:14;;;;;;;;;;;;;;;18.43;63.18;101663.75;1048281;28;650;-64
2022/05/27 01:48:05;;;;;;;;;;;;;;;18.44;63.35;101668.16;1048349;28;717;-64
2022/05/27 01:48:55;;;;;;;;;;;;;;;18.43;64.02;101671.84;1048837;28;693;-64
2022/05/27 01:49:45;;;;;;;;;;;;;;;18.44;63.99;101668.16;1049292;28;638;-65
2022/05/27 01:50:36;;;;;;;;;;;;;;;18.43;63.58;101666.44;1049552;28;638;-65
2022/05/27 01:51:26;;;;;;;;;;;;;;;18.44;63.85;101670.00;1049030;28;629;-65
2022/05/27 01:52:17;;;;;;;;;;;;;;;18.42;63.18;101661.19;1049311;28;681;-65
2022/05/27 01:53:07;;;;;;;;;;;;;;;18.42;63.86;101669.28;1049408;28;630;-64
2022/05/27 01:53:57;;;;;;;;;;;;;;;18.43;63.32;101662.88;1049296;28;664;-64
2022/05/27 01:54:48;;;;;;;;;;;;;;;18.43;63.86;101665.59;1049617;28;676;-65
2022/05/27 01:55:40;;;;;;;;;;;;;;;18.42;63.82;101671.97;1048970;28;716;-65
2022/05/27 01:56:30;;;;;;;;;;;;;;;18.42;63.13;101669.28;1051693;28;1675;-65
2022/05/27 01:57:20;;;;;;;;;;;;;;;18.39;63.26;101663.16;1052427;28;661;-66
2022/05/27 01:58:11;;;;;;;;;;;;;;;18.40;63.68;101666.69;1052082;28;1643;-66
2022/05/27 01:59:01;;;;;;;;;;;;;;;18.41;63.12;101672.97;1056286;28;616;-66
2022/05/27 01:59:52;;;;;;;;;;;;;;;18.41;63.96;101664.84;1057688;28;864;-66
2022/05/27 02:00:42;;;;;;;;;;;;;;;18.38;62.98;101664.13;1053347;28;648;-66
2022/05/27 02:01:32;;;;;;;;;;;;;;;18.37;64.20;101670.50;1052396;28;821;-65
2022/05/27 02:02:23;;;;;;;;;;;;;;;18.38;64.17;101674.94;1050678;28;1647;-65
2022/05/27 02:03:13;;;;;;;;;;;;;;;18.37;63.85;101672.34;1052330;28;795;-65
2022/05/27 02:04:04;;;;;;;;;;;;;;;18.37;63.33;101675.91;1052446;28;614;-65
2022/05/27 02:04:54;;;;;;;;;;;;;;;18.38;63.65;101674.94;1052577;28;663;-65
2022/05/27 02:05:44;;;;;;;;;;;;;;;18.37;63.14;101675.06;1051963;28;661;-65
2022/05/27 02:06:35;;;;;;;;;;;;;;;18.36;63.30;101676.91;1052444;28;727;-64
2022/05/27 02:07:25;;;;;;;;;;;;;;;18.35;63.84;101685.13;1052398;28;626;-65
2022/05/27 02:08:16;;;;;;;;;;;;;;;18.36;63.50;101676.03;1052508;28;643;-65
2022/05/27 02:09:06;;;;;;;;;;;;;;;18.34;63.45;101678.84;1052445;28;1893;-65
2022/05/27 02:09:56;;;;;;;;;;;;;;;18.34;63.21;101673.47;1052518;28;685;-65
2022/05/27 02:10:47;;;;;;;;;;;;;;;18.33;64.02;101671.75;1052468;28;649;-65
2022/05/27 02:11:38;;;;;;;;;;;;;;;18.35;63.86;101674.31;1052437;28;687;-65
2022/05/27 02:12:28;;;;;;;;;;;;;;;18.33;62.99;101673.59;1052325;28;646;-65
2022/05/27 02:13:19;;;;;;;;;;;;;;;18.33;64.07;101673.59;1052482;28;653;-65
2022/05/27 02:14:09;;;;;;;;;;;;;;;18.32;63.61;101678.13;1052329;28;660;-65
2022/05/27 02:15:01;;;;;;;;;;;;;;;18.32;63.48;101678.13;1052479;28;720;-65
2022/05/27 02:15:51;;;;;;;;;;;;;;;18.32;64.08;101670.03;1052498;28;674;-65
2022/05/27 02:16:42;;;;;;;;;;;;;;;18.31;63.12;101673.72;1052359;28;729;-64
2022/05/27 02:17:32;;;;;;;;;;;;;;;18.31;64.19;101668.31;1052377;28;696;-64
2022/05/27 02:18:23;;;;;;;;;;;;;;;18.31;63.07;101683.66;1052356;28;868;-65
2022/05/27 02:19:13;;;;;;;;;;;;;;;18.31;63.42;101679.13;1057452;28;881;-64
2022/05/27 02:20:03;;;;;;;;;;;;;;;18.31;63.47;101672.84;1057503;28;657;-64
2022/05/27 02:20:54;;;;;;;;;;;;;;;18.30;63.99;101669.31;1053381;28;648;-65
2022/05/27 02:21:44;;;;;;;;;;;;;;;18.32;64.04;101675.44;1052471;28;638;-64
2022/05/27 02:22:35;;;;;;;;;;;;;;;18.31;63.22;101668.31;1052527;28;664;-65
2022/05/27 02:23:25;;;;;;;;;;;;;;;18.31;63.77;101672.84;1052224;28;642;-64
2022/05/27 02:24:15;;;;;;;;;;;;;;;18.29;63.00;101667.59;1052416;28;634;-65
2022/05/27 02:25:06;;;;;;;;;;;;;;;18.30;63.61;101681.94;1052429;28;691;-66
2022/05/27 02:25:56;;;;;;;;;;;;;;;18.30;63.43;101677.41;1052305;28;677;-64
2022/05/27 02:26:47;;;;;;;;;;;;;;;18.31;63.01;101673.72;1048846;28;713;-65
2022/05/27 02:27:37;;;;;;;;;;;;;;;18.30;63.85;101672.00;1048138;28;638;-65
2022/05/27 02:28:28;;;;;;;;;;;;;;;18.29;63.90;101675.69;1048233;28;646;-65
2022/05/27 02:29:18;;;;;;;;;;;;;;;18.28;63.98;101676.66;1048138;28;1959;-65
2022/05/27 02:30:08;;;;;;;;;;;;;;;18.26;63.64;101675.97;1048735;28;646;-65
2022/05/27 02:30:59;;;;;;;;;;;;;;;18.28;63.44;101667.72;1048881;28;725;-65
2022/05/27 02:31:49;;;;;;;;;;;;;;;18.28;63.61;101668.56;1048112;28;638;-65
2022/05/27 02:32:40;;;;;;;;;;;;;;;18.29;63.70;101672.97;1048793;28;700;-65
2022/05/27 02:35:50;;;;;;;;;;;;;;;18.27;63.96;101663.34;1049353;28;665;-65
2022/05/27 02:36:40;;;;;;;;;;;;;;;18.27;63.65;101666.84;1048272;28;825;-65
2022/05/27 02:37:30;;;;;;;;;;;;;;;18.26;63.52;101665.19;1048082;28;658;-64
2022/05/27 02:38:21;;;;;;;;;;;;;;;18.25;63.59;101663.47;1048235;28;665;-65
2022/05/27 02:39:11;;;;;;;;;;;;;;;18.25;63.27;101658.06;1052614;28;641;-65
2022/05/27 02:40:02;;;;;;;;;;;;;;;18.24;63.03;101650.97;1053236;28;665;-64
2022/05/27 02:40:52;;;;;;;;;;;;;;;18.25;63.53;101655.38;1049589;28;632;-65
2022/05/27 02:41:42;;;;;;;;;;;;;;;18.25;62.98;101658.06;1048134;28;614;-65
2022/05/27 02:42:33;;;;;;;;;;;;;;;18.26;63.41;101656.22;1048216;28;653;-65
2022/05/27 02:43:23;;;;;;;;;;;;;;;18.25;63.39;101658.06;1048056;28;697;-65
2022/05/27 02:44:14;;;;;;;;;;;;;;;18.24;63.68;101650.97;1048986;28;686;-65
2022/05/27 02:45:04;;;;;;;;;;;;;;;18.24;63.20;101650.09;1049553;28;1943;-64
2022/05/27 02:45:54;;;;;;;;;;;;;;;18.24;63.37;101655.50;1049026;28;717;-65
2022/05/27 02:46:45;;;;;;;;;;;;;;;18.22;63.18;101655.63;1049144;28;665;-64
2022/05/27 02:47:35;;;;;;;;;;;;;;;18.23;63.32;101659.19;1049584;28;688;-64
2022/05/27 02:48:26;;;;;;;;;;;;;;;18.23;63.50;101656.47;1049095;28;1255;-64
2022/05/27 02:49:16;;;;;;;;;;;;;;;18.22;63.35;101652.91;1053356;28;1914;-65
2022/05/27 02:50:06;;;;;;;;;;;;;;;18.21;63.79;101648.50;1054321;28;642;-64
2022/05/27 02:50:57;;;;;;;;;;;;;;;18.22;63.60;101650.22;1053791;28;736;-64
2022/05/27 02:51:47;;;;;;;;;;;;;;;18.23;63.21;101648.38;1053634;28;633;-64
2022/05/27 02:52:38;;;;;;;;;;;;;;;18.22;63.79;101654.75;1054382;28;669;-64
2022/05/27 02:53:28;;;;;;;;;;;;;;;18.23;63.56;101648.38;1053596;28;842;-65
2022/05/27 02:54:18;;;;;;;;;;;;;;;18.22;63.22;101652.91;1053687;28;637;-65
2022/05/27 02:55:09;;;;;;;;;;;;;;;18.22;63.56;101658.31;1053783;28;708;-64
2022/05/27 02:55:59;;;;;;;;;;;;;;;18.21;62.73;101653.91;1053482;28;1742;-65
2022/05/27 02:56:50;;;;;;;;;;;;;;;18.21;63.74;101656.59;1050138;28;696;-64
2022/05/27 02:57:40;;;;;;;;;;;;;;;18.22;63.62;101655.63;1049129;28;641;-65
2022/05/27 02:58:30;;;;;;;;;;;;;;;18.22;63.22;101655.63;1048868;28;680;-65
2022/05/27 02:59:21;;;;;;;;;;;;;;;18.20;63.34;101652.19;1048994;28;681;-65
2022/05/27 03:00:11;;;;;;;;;;;;;;;18.20;63.86;101654.88;1048879;28;685;-65
2022/05/27 03:01:02;;;;;;;;;;;;;;;18.19;62.88;101658.56;1049113;28;733;-64
2022/05/27 03:01:53;;;;;;;;;;;;;;;18.19;63.16;101653.19;1048978;28;609;-64
2022/05/27 03:02:43;;;;;;;;;;;;;;;18.20;62.80;101660.28;1048812;28;674;-64
2022/05/27 03:03:34;;;;;;;;;;;;;;;18.20;63.79;101660.28;1052967;28;657;-64
2022/05/27 03:04:24;;;;;;;;;;;;;;;18.19;62.82;101646.91;1053963;28;1730;-64
2022/05/27 03:05:15;;;;;;;;;;;;;;;18.17;63.47;101652.44;1050508;28;731;-64
2022/05/27 03:06:05;;;;;;;;;;;;;;;18.19;63.81;101661.28;1048841;28;638;-64
2022/05/27 03:06:56;;;;;;;;;;;;;;;18.19;62.88;101660.41;1048973;28;634;-64
2022/05/27 03:07:47;;;;;;;;;;;;;;;18.18;63.51;101662.25;1049512;28;705;-64
2022/05/27 03:08:37;;;;;;;;;;;;;;;18.18;63.58;101656.84;1053487;28;714;-64
2022/05/27 03:09:28;;;;;;;;;;;;;;;18.18;63.10;101659.56;1054556;28;1886;-63
2022/05/27 03:10:18;;;;;;;;;;;;;;;18.17;63.23;101652.44;1050378;28;672;-63
2022/05/27 03:11:08;;;;;;;;;;;;;;;18.17;62.79;101649.75;1048793;28;591;-64
2022/05/27 03:11:59;;;;;;;;;;;;;;;18.17;62.76;101660.53;1048971;28;733;-64
2022/05/27 03:12:49;;;;;;;;;;;;;;;18.18;63.21;101661.41;1048827;28;619;-64
2022/05/27 03:13:40;;;;;;;;;;;;;;;18.17;62.71;101660.53;1048916;28;634;-64
2022/05/27 03:14:30;;;;;;;;;;;;;;;18.17;63.65;101660.53;1049473;28;650;-64
2022/05/27 03:15:20;;;;;;;;;;;;;;;18.18;62.96;101664.09;1048810;28;653;-63
2022/05/27 03:16:11;;;;;;;;;;;;;;;18.17;63.81;101668.63;1048998;28;692;-64
2022/05/27 03:17:01;;;;;;;;;;;;;;;18.17;62.96;101674.03;1048754;28;645;-64
2022/05/27 03:17:52;;;;;;;;;;;;;;;18.17;63.52;101668.63;1048834;28;677;-63
2022/05/27 03:18:42;;;;;;;;;;;;;;;18.17;63.30;101665.94;1049456;28;638;-63
2022/05/27 03:19:32;;;;;;;;;;;;;;;18.16;62.79;101658.81;1048804;28;707;-63
2022/05/27 03:20:23;;;;;;;;;;;;;;;18.14;63.21;101663.50;1053412;28;744;-64
2022/05/27 03:21:13;;;;;;;;;;;;;;;18.15;63.14;101664.34;1054626;28;672;-63
2022/05/27 03:22:04;;;;;;;;;;;;;;;18.15;62.85;101672.44;1050210;28;649;-64
2022/05/27 03:22:54;;;;;;;;;;;;;;;18.15;63.85;101672.44;1049389;28;618;-63
2022/05/27 03:23:45;;;;;;;;;;;;;;;18.15;63.28;101675.13;1048772;28;642;-64
2022/05/27 03:24:35;;;;;;;;;;;;;;;18.15;63.61;101673.28;1048793;28;630;-64
2022/05/27 03:25:26;;;;;;;;;;;;;;;18.14;63.25;101671.56;1049456;28;700;-65
2022/05/27 03:26:16;;;;;;;;;;;;;;;18.15;63.74;101675.13;1050686;28;1692;-65
2022/05/27 03:27:07;;;;;;;;;;;;;;;18.15;63.14;101673.28;1056989;28;641;-65
2022/05/27 03:27:58;;;;;;;;;;;;;;;18.15;63.48;101680.53;1059319;27;750;-65
2022/05/27 03:28:48;;;;;;;;;;;;;;;18.14;63.17;101678.81;1053725;28;645;-64
2022/05/27 03:29:38;;;;;;;;;;;;;;;18.13;62.96;101675.25;1053021;28;692;-65
2022/05/27 03:30:29;;;;;;;;;;;;;;;18.13;63.49;101675.25;1053098;28;638;-65
2022/05/27 03:31:19;;;;;;;;;;;;;;;18.13;63.45;101677.97;1052947;28;614;-65
2022/05/27 03:32:10;;;;;;;;;;;;;;;18.13;63.28;101680.66;1053006;28;835;-65
2022/05/27 03:33:00;;;;;;;;;;;;;;;18.14;62.78;101678.81;1053096;28;668;-65
2022/05/27 03:33:51;;;;;;;;;;;;;;;18.12;63.76;101670.84;1052986;28;673;-65
2022/05/27 03:34:42;;;;;;;;;;;;;;;18.13;63.72;101674.41;1053017;28;575;-65
2022/05/27 03:35:32;;;;;;;;;;;;;;;18.13;63.22;101680.66;1052968;28;673;-65
2022/05/27 03:36:23;;;;;;;;;;;;;;;18.13;63.29;101669.00;1053205;28;641;-65
2022/05/27 03:37:13;;;;;;;;;;;;;;;18.13;63.04;101680.66;1053160;28;717;-65
2022/05/27 03:38:04;;;;;;;;;;;;;;;18.13;63.76;101661.78;1053012;28;692;-65
2022/05/27 03:38:54;;;;;;;;;;;;;;;18.13;63.31;101671.72;1052950;28;634;-65
2022/05/27 03:39:45;;;;;;;;;;;;;;;18.12;62.96;101673.53;1053094;28;657;-65
2022/05/27 03:40:35;;;;;;;;;;;;;;;18.13;63.08;101675.25;1052948;28;637;-65
2022/05/27 03:41:26;;;;;;;;;;;;;;;18.13;63.72;101677.97;1052959;28;614;-65
2022/05/27 03:42:19;;;;;;;;;;;;;;;18.13;63.36;101674.41;1053043;28;685;-65
2022/05/27 03:43:10;;;;;;;;;;;;;;;18.13;62.60;101664.47;1052999;28;728;-63
2022/05/27 03:44:00;;;;;;;;;;;;;;;18.14;63.63;101676.13;1053137;28;642;-64
2022/05/27 03:44:51;;;;;;;;;;;;;;;18.13;62.79;101669.88;1052939;28;697;-63
2022/05/27 03:45:41;;;;;;;;;;;;;;;18.12;63.24;101667.28;1053060;28;654;-63
2022/05/27 03:46:31;;;;;;;;;;;;;;;18.13;63.08;101677.09;1052825;28;681;-64
2022/05/27 03:47:22;;;;;;;;;;;;;;;18.13;63.70;101675.25;1052598;28;720;-63
2022/05/27 03:48:12;;;;;;;;;;;;;;;18.13;62.54;101677.09;1053600;28;708;-63
2022/05/27 03:49:03;;;;;;;;;;;;;;;18.13;62.60;101680.66;1056853;28;768;-63
2022/05/27 03:49:53;;;;;;;;;;;;;;;18.14;62.85;101674.28;1057660;28;700;-62
2022/05/27 03:50:43;;;;;;;;;;;;;;;18.12;63.37;101668.16;1053613;28;629;-62
2022/05/27 03:51:34;;;;;;;;;;;;;;;18.12;63.51;101676.25;1053657;28;763;-64
2022/05/27 03:52:24;;;;;;;;;;;;;;;18.13;63.09;101671.72;1052227;28;646;-63
2022/05/27 03:53:15;;;;;;;;;;;;;;;18.13;62.70;101669.88;1054774;28;633;-63
2022/05/27 03:54:05;;;;;;;;;;;;;;;18.14;63.62;101668.03;1052704;28;653;-64
2022/05/27 03:54:56;;;;;;;;;;;;;;;18.13;62.45;101669.88;1052126;28;818;-64
2022/05/27 03:55:46;;;;;;;;;;;;;;;18.14;63.16;101668.03;1052414;28;1761;-65
2022/05/27 03:56:37;;;;;;;;;;;;;;;18.12;63.37;101678.09;1052815;28;681;-64
2022/05/27 03:57:27;;;;;;;;;;;;;;;18.11;63.23;101668.28;1057114;28;716;-64
2022/05/27 03:58:17;;;;;;;;;;;;;;;18.11;63.73;101671.84;1058218;28;653;-64
2022/05/27 03:59:08;;;;;;;;;;;;;;;18.11;63.45;101665.59;1053759;28;672;-63
2022/05/27 03:59:58;;;;;;;;;;;;;;;18.11;63.36;101671.84;1053042;28;759;-64
2022/05/27 04:00:49;;;;;;;;;;;;;;;18.11;63.10;101671.84;1052799;28;641;-64
2022/05/27 04:01:39;;;;;;;;;;;;;;;18.11;63.56;101674.53;1052527;28;637;-64
2022/05/27 04:02:29;;;;;;;;;;;;;;;18.11;62.86;101674.53;1052966;28;665;-64
2022/05/27 04:03:20;;;;;;;;;;;;;;;18.12;63.24;101676.25;1052924;28;669;-64
2022/05/27 04:04:10;;;;;;;;;;;;;;;18.11;62.82;101671.84;1051830;28;1722;-64
2022/05/27 04:05:01;;;;;;;;;;;;;;;18.13;63.54;101680.66;1048690;28;657;-64
2022/05/27 04:05:51;;;;;;;;;;;;;;;18.13;63.10;101674.41;1049754;28;796;-64
2022/05/27 04:06:41;;;;;;;;;;;;;;;18.12;63.15;101672.69;1049742;28;653;-64
2022/05/27 04:07:32;;;;;;;;;;;;;;;18.13;63.43;101679.81;1049775;28;720;-64
2022/05/27 04:08:22;;;;;;;;;;;;;;;18.12;62.74;101676.25;1049792;28;693;-64
2022/05/27 04:09:13;;;;;;;;;;;;;;;18.13;62.64;101669.88;1049714;28;1887;-64
2022/05/27 04:10:03;;;;;;;;;;;;;;;18.13;63.41;101674.41;1049906;28;669;-64
2022/05/27 04:10:54;;;;;;;;;;;;;;;18.14;63.29;101676.13;1049805;28;625;-64
2022/05/27 04:11:44;;;;;;;;;;;;;;;18.13;63.14;101680.66;1049854;28;625;-64
2022/05/27 04:12:35;;;;;;;;;;;;;;;18.13;63.42;101683.34;1050553;28;1671;-64
2022/05/27 04:13:26;;;;;;;;;;;;;;;18.14;62.91;101676.13;1052924;28;625;-64
2022/05/27 04:14:16;;;;;;;;;;;;;;;18.13;63.09;101677.97;1053069;28;641;-64
2022/05/27 04:15:07;;;;;;;;;;;;;;;18.14;63.37;101676.13;1052860;28;700;-64
2022/05/27 04:15:57;;;;;;;;;;;;;;;18.14;63.41;101676.97;1053005;28;669;-64
2022/05/27 04:16:48;;;;;;;;;;;;;;;18.15;62.57;101677.84;1052828;28;630;-64
2022/05/27 04:17:40;;;;;;;;;;;;;;;18.15;63.02;101680.53;1052670;28;628;-63
2022/05/27 04:18:31;;;;;;;;;;;;;;;18.15;62.67;101672.44;1052911;28;677;-64
2022/05/27 04:19:21;;;;;;;;;;;;;;;18.15;62.83;101678.69;1052986;28;845;-63
2022/05/27 04:20:11;;;;;;;;;;;;;;;18.13;62.53;101675.25;1052812;28;775;-64
2022/05/27 04:21:02;;;;;;;;;;;;;;;18.15;63.12;101676.00;1052867;28;645;-64
2022/05/27 04:21:52;;;;;;;;;;;;;;;18.15;63.04;101678.69;1053832;28;693;-64
2022/05/27 04:22:43;;;;;;;;;;;;;;;18.14;62.74;101679.69;1052782;28;621;-64
2022/05/27 04:23:33;;;;;;;;;;;;;;;18.14;62.59;101674.28;1052924;28;697;-64
2022/05/27 04:24:23;;;;;;;;;;;;;;;18.13;63.40;101675.25;1052753;28;642;-64
2022/05/27 04:25:14;;;;;;;;;;;;;;;18.13;63.31;101679.81;1052864;28;713;-64
2022/05/27 04:26:05;;;;;;;;;;;;;;;18.15;63.11;101683.22;1050135;28;1658;-63
2022/05/27 04:26:55;;;;;;;;;;;;;;;18.13;62.70;101683.34;1049749;28;645;-63
2022/05/27 04:27:46;;;;;;;;;;;;;;;18.12;63.42;101686.19;1049743;28;685;-64
2022/05/27 04:28:36;;;;;;;;;;;;;;;18.13;63.38;101680.66;1049848;28;657;-64